Urb El Torito, Puerto Rico
Current Conditions -  °F | °C
As of 7:56 AM on Monday 20 Oct 2014 (Local Time) from TJSJ Reporting Station
Scattered Clouds Scattered Clouds  
Wind Chill: 82°   Ceiling: Unl
Heat Index: 89°   Visibility: 10mi
Dew Point: 75°   Wind: 0mph
Humidity: 79%   Direction: NA
Pressure: 29.98"   Gusts: NA
Location:  18.1193°N, 66.1642°W
Report Text: TJSJ 201156Z 00000KT 10SM FEW024 SCT070 28/24 A2998 RMK AO2 SLP149 70004 T02780239 10278 20261 51018
Loading
Personal Weather Stations






























Interactive Weather Map
Tropical Storm Tracking
New forecast layout! Learn more

10-Day Weather Forecast

Advertisements
Track Severe Weather on mobile